sensor_id;sensor_type;location;lat;lon;timestamp;P1;durP1;ratioP1;P2;durP2;ratioP2
12848;SDS011;6493;50.928;7.172;2023-01-25T00:00:46;2.90;;;2.43;;
12848;SDS011;6493;50.928;7.172;2023-01-25T00:05:58;4.00;;;3.37;;
12848;SDS011;6493;50.928;7.172;2023-01-25T00:11:03;2.80;;;2.30;;
12848;SDS011;6493;50.928;7.172;2023-01-25T00:16:06;3.73;;;3.33;;
12848;SDS011;6493;50.928;7.172;2023-01-25T00:21:12;4.00;;;3.60;;
12848;SDS011;6493;50.928;7.172;2023-01-25T00:26:17;3.60;;;3.07;;
12848;SDS011;6493;50.928;7.172;2023-01-25T00:38:26;3.43;;;2.90;;
12848;SDS011;6493;50.928;7.172;2023-01-25T00:43:32;3.37;;;3.07;;
12848;SDS011;6493;50.928;7.172;2023-01-25T00:49:05;2.80;;;2.50;;
12848;SDS011;6493;50.928;7.172;2023-01-25T00:54:10;3.13;;;2.73;;
12848;SDS011;6493;50.928;7.172;2023-01-25T00:59:14;3.50;;;3.10;;
12848;SDS011;6493;50.928;7.172;2023-01-25T01:04:18;2.67;;;2.37;;
12848;SDS011;6493;50.928;7.172;2023-01-25T01:09:27;3.13;;;2.60;;
12848;SDS011;6493;50.928;7.172;2023-01-25T01:14:34;3.93;;;3.53;;
12848;SDS011;6493;50.928;7.172;2023-01-25T01:19:41;3.00;;;2.57;;
12848;SDS011;6493;50.928;7.172;2023-01-25T01:24:47;4.03;;;3.63;;
12848;SDS011;6493;50.928;7.172;2023-01-25T01:29:52;3.80;;;3.30;;
12848;SDS011;6493;50.928;7.172;2023-01-25T01:34:56;3.23;;;2.93;;
12848;SDS011;6493;50.928;7.172;2023-01-25T01:40:01;3.07;;;2.50;;
12848;SDS011;6493;50.928;7.172;2023-01-25T01:50:42;2.57;;;2.37;;
12848;SDS011;6493;50.928;7.172;2023-01-25T01:55:47;3.70;;;3.37;;
12848;SDS011;6493;50.928;7.172;2023-01-25T02:00:51;2.87;;;2.30;;
12848;SDS011;6493;50.928;7.172;2023-01-25T02:05:56;3.27;;;2.50;;
12848;SDS011;6493;50.928;7.172;2023-01-25T02:11:06;3.00;;;2.70;;
12848;SDS011;6493;50.928;7.172;2023-01-25T02:16:12;2.77;;;2.17;;
12848;SDS011;6493;50.928;7.172;2023-01-25T02:21:18;2.43;;;2.23;;
12848;SDS011;6493;50.928;7.172;2023-01-25T02:26:24;4.57;;;3.37;;
12848;SDS011;6493;50.928;7.172;2023-01-25T02:31:28;4.27;;;3.60;;
12848;SDS011;6493;50.928;7.172;2023-01-25T02:36:34;3.23;;;2.93;;
12848;SDS011;6493;50.928;7.172;2023-01-25T02:41:39;3.67;;;2.60;;
12848;SDS011;6493;50.928;7.172;2023-01-25T02:46:44;3.27;;;2.97;;
12848;SDS011;6493;50.928;7.172;2023-01-25T02:51:51;4.10;;;2.33;;
12848;SDS011;6493;50.928;7.172;2023-01-25T02:56:59;2.80;;;2.37;;
12848;SDS011;6493;50.928;7.172;2023-01-25T03:02:11;2.57;;;2.13;;
12848;SDS011;6493;50.928;7.172;2023-01-25T03:07:17;3.00;;;2.50;;
12848;SDS011;6493;50.928;7.172;2023-01-25T03:12:22;3.90;;;3.50;;
12848;SDS011;6493;50.928;7.172;2023-01-25T03:17:28;4.30;;;3.90;;
12848;SDS011;6493;50.928;7.172;2023-01-25T03:22:32;3.00;;;2.70;;
12848;SDS011;6493;50.928;7.172;2023-01-25T03:27:37;3.30;;;2.90;;
12848;SDS011;6493;50.928;7.172;2023-01-25T03:32:44;3.20;;;2.70;;
12848;SDS011;6493;50.928;7.172;2023-01-25T03:37:53;3.43;;;2.90;;
12848;SDS011;6493;50.928;7.172;2023-01-25T03:42:58;2.67;;;2.27;;
12848;SDS011;6493;50.928;7.172;2023-01-25T03:48:02;3.47;;;3.00;;
12848;SDS011;6493;50.928;7.172;2023-01-25T03:53:07;2.80;;;2.50;;
12848;SDS011;6493;50.928;7.172;2023-01-25T03:58:22;2.33;;;2.10;;
12848;SDS011;6493;50.928;7.172;2023-01-25T04:03:26;3.17;;;2.83;;
12848;SDS011;6493;50.928;7.172;2023-01-25T04:08:33;1.80;;;1.60;;
12848;SDS011;6493;50.928;7.172;2023-01-25T04:13:40;1.93;;;1.73;;
12848;SDS011;6493;50.928;7.172;2023-01-25T04:18:46;4.27;;;3.53;;
12848;SDS011;6493;50.928;7.172;2023-01-25T04:23:50;3.20;;;2.53;;
12848;SDS011;6493;50.928;7.172;2023-01-25T04:28:55;4.00;;;2.50;;
12848;SDS011;6493;50.928;7.172;2023-01-25T04:33:59;3.67;;;2.97;;
12848;SDS011;6493;50.928;7.172;2023-01-25T04:39:03;3.30;;;2.60;;
12848;SDS011;6493;50.928;7.172;2023-01-25T04:44:08;3.10;;;2.70;;
12848;SDS011;6493;50.928;7.172;2023-01-25T04:49:14;2.87;;;2.57;;
12848;SDS011;6493;50.928;7.172;2023-01-25T04:54:18;2.67;;;2.23;;
12848;SDS011;6493;50.928;7.172;2023-01-25T04:59:23;2.47;;;1.80;;
12848;SDS011;6493;50.928;7.172;2023-01-25T05:04:27;2.70;;;2.20;;
12848;SDS011;6493;50.928;7.172;2023-01-25T05:09:30;2.43;;;1.93;;
12848;SDS011;6493;50.928;7.172;2023-01-25T05:14:36;3.20;;;2.00;;
12848;SDS011;6493;50.928;7.172;2023-01-25T05:19:40;2.60;;;1.63;;
12848;SDS011;6493;50.928;7.172;2023-01-25T05:24:49;2.27;;;1.87;;
12848;SDS011;6493;50.928;7.172;2023-01-25T05:29:55;1.63;;;1.53;;
12848;SDS011;6493;50.928;7.172;2023-01-25T05:35:09;1.93;;;1.73;;
12848;SDS011;6493;50.928;7.172;2023-01-25T05:40:14;1.77;;;1.37;;
12848;SDS011;6493;50.928;7.172;2023-01-25T05:45:20;2.90;;;2.43;;
12848;SDS011;6493;50.928;7.172;2023-01-25T05:50:24;6.50;;;5.60;;
12848;SDS011;6493;50.928;7.172;2023-01-25T05:55:38;3.80;;;3.00;;
12848;SDS011;6493;50.928;7.172;2023-01-25T06:00:50;2.43;;;2.20;;
12848;SDS011;6493;50.928;7.172;2023-01-25T06:06:11;2.50;;;2.30;;
12848;SDS011;6493;50.928;7.172;2023-01-25T06:11:17;4.73;;;3.83;;
12848;SDS011;6493;50.928;7.172;2023-01-25T06:16:24;2.37;;;2.00;;
12848;SDS011;6493;50.928;7.172;2023-01-25T06:21:28;1.60;;;1.50;;
12848;SDS011;6493;50.928;7.172;2023-01-25T06:26:32;2.53;;;1.60;;
12848;SDS011;6493;50.928;7.172;2023-01-25T06:31:36;1.53;;;1.30;;
12848;SDS011;6493;50.928;7.172;2023-01-25T06:36:40;2.83;;;2.03;;
12848;SDS011;6493;50.928;7.172;2023-01-25T06:41:44;3.20;;;2.40;;
12848;SDS011;6493;50.928;7.172;2023-01-25T06:46:50;4.73;;;4.07;;
12848;SDS011;6493;50.928;7.172;2023-01-25T06:51:54;3.27;;;2.30;;
12848;SDS011;6493;50.928;7.172;2023-01-25T06:56:58;1.67;;;1.57;;
12848;SDS011;6493;50.928;7.172;2023-01-25T07:02:03;1.57;;;1.47;;
12848;SDS011;6493;50.928;7.172;2023-01-25T07:07:07;2.47;;;1.87;;
12848;SDS011;6493;50.928;7.172;2023-01-25T07:12:11;1.70;;;1.47;;
12848;SDS011;6493;50.928;7.172;2023-01-25T07:17:16;1.60;;;1.50;;
12848;SDS011;6493;50.928;7.172;2023-01-25T07:22:20;1.70;;;1.20;;
12848;SDS011;6493;50.928;7.172;2023-01-25T07:27:24;2.10;;;1.83;;
12848;SDS011;6493;50.928;7.172;2023-01-25T07:32:29;1.80;;;1.67;;
12848;SDS011;6493;50.928;7.172;2023-01-25T07:37:32;1.83;;;1.40;;
12848;SDS011;6493;50.928;7.172;2023-01-25T07:42:36;2.43;;;1.70;;
12848;SDS011;6493;50.928;7.172;2023-01-25T07:47:48;2.43;;;1.80;;
12848;SDS011;6493;50.928;7.172;2023-01-25T07:52:52;2.20;;;2.00;;
12848;SDS011;6493;50.928;7.172;2023-01-25T07:57:56;2.13;;;1.80;;
12848;SDS011;6493;50.928;7.172;2023-01-25T08:03:01;2.13;;;1.73;;
12848;SDS011;6493;50.928;7.172;2023-01-25T08:08:04;2.93;;;2.10;;
12848;SDS011;6493;50.928;7.172;2023-01-25T08:13:08;2.10;;;1.80;;
12848;SDS011;6493;50.928;7.172;2023-01-25T08:18:13;3.77;;;3.10;;
12848;SDS011;6493;50.928;7.172;2023-01-25T08:23:17;3.37;;;2.40;;
12848;SDS011;6493;50.928;7.172;2023-01-25T08:28:21;2.50;;;2.17;;
12848;SDS011;6493;50.928;7.172;2023-01-25T08:33:26;2.50;;;2.30;;
12848;SDS011;6493;50.928;7.172;2023-01-25T08:38:31;2.63;;;2.23;;
12848;SDS011;6493;50.928;7.172;2023-01-25T08:43:34;3.03;;;2.20;;
12848;SDS011;6493;50.928;7.172;2023-01-25T08:48:40;1.93;;;1.70;;
12848;SDS011;6493;50.928;7.172;2023-01-25T08:53:43;2.63;;;2.10;;
12848;SDS011;6493;50.928;7.172;2023-01-25T08:58:47;2.60;;;1.90;;
12848;SDS011;6493;50.928;7.172;2023-01-25T09:03:53;2.83;;;2.27;;
12848;SDS011;6493;50.928;7.172;2023-01-25T09:08:57;3.63;;;2.07;;
12848;SDS011;6493;50.928;7.172;2023-01-25T09:14:01;2.80;;;1.90;;
12848;SDS011;6493;50.928;7.172;2023-01-25T09:19:08;1.70;;;1.60;;
12848;SDS011;6493;50.928;7.172;2023-01-25T09:24:11;1.93;;;1.60;;
12848;SDS011;6493;50.928;7.172;2023-01-25T09:29:15;1.83;;;1.67;;
12848;SDS011;6493;50.928;7.172;2023-01-25T09:34:20;2.53;;;2.10;;
12848;SDS011;6493;50.928;7.172;2023-01-25T09:39:24;1.57;;;1.27;;
12848;SDS011;6493;50.928;7.172;2023-01-25T09:44:31;2.70;;;2.13;;
12848;SDS011;6493;50.928;7.172;2023-01-25T09:49:57;2.80;;;2.07;;
12848;SDS011;6493;50.928;7.172;2023-01-25T09:55:14;2.27;;;1.67;;
12848;SDS011;6493;50.928;7.172;2023-01-25T10:00:23;1.73;;;1.20;;
12848;SDS011;6493;50.928;7.172;2023-01-25T10:05:35;2.17;;;1.63;;
12848;SDS011;6493;50.928;7.172;2023-01-25T10:10:45;2.40;;;1.60;;
12848;SDS011;6493;50.928;7.172;2023-01-25T10:15:54;2.73;;;2.07;;
12848;SDS011;6493;50.928;7.172;2023-01-25T10:21:06;2.90;;;1.50;;
12848;SDS011;6493;50.928;7.172;2023-01-25T10:26:15;2.93;;;2.63;;
12848;SDS011;6493;50.928;7.172;2023-01-25T10:31:27;3.30;;;2.70;;
12848;SDS011;6493;50.928;7.172;2023-01-25T10:36:37;5.93;;;4.30;;
12848;SDS011;6493;50.928;7.172;2023-01-25T10:41:42;4.07;;;3.00;;
12848;SDS011;6493;50.928;7.172;2023-01-25T10:46:50;3.40;;;2.53;;
12848;SDS011;6493;50.928;7.172;2023-01-25T10:52:12;2.87;;;2.00;;
12848;SDS011;6493;50.928;7.172;2023-01-25T10:57:19;3.03;;;2.03;;
12848;SDS011;6493;50.928;7.172;2023-01-25T11:07:47;3.33;;;2.30;;
12848;SDS011;6493;50.928;7.172;2023-01-25T11:12:57;2.27;;;1.90;;
12848;SDS011;6493;50.928;7.172;2023-01-25T11:18:21;1.90;;;1.50;;
12848;SDS011;6493;50.928;7.172;2023-01-25T11:23:28;1.83;;;1.30;;
12848;SDS011;6493;50.928;7.172;2023-01-25T11:28:32;1.60;;;1.43;;
12848;SDS011;6493;50.928;7.172;2023-01-25T11:33:36;1.43;;;1.33;;
12848;SDS011;6493;50.928;7.172;2023-01-25T11:38:45;1.87;;;1.53;;
12848;SDS011;6493;50.928;7.172;2023-01-25T11:44:18;2.00;;;1.43;;
12848;SDS011;6493;50.928;7.172;2023-01-25T11:49:44;1.90;;;1.30;;
12848;SDS011;6493;50.928;7.172;2023-01-25T11:55:02;2.30;;;1.73;;
12848;SDS011;6493;50.928;7.172;2023-01-25T12:00:23;1.83;;;1.33;;
12848;SDS011;6493;50.928;7.172;2023-01-25T12:05:40;3.00;;;2.10;;
12848;SDS011;6493;50.928;7.172;2023-01-25T12:10:54;3.33;;;2.37;;
12848;SDS011;6493;50.928;7.172;2023-01-25T12:16:07;2.87;;;2.10;;
12848;SDS011;6493;50.928;7.172;2023-01-25T12:21:28;2.83;;;2.27;;
12848;SDS011;6493;50.928;7.172;2023-01-25T12:26:47;3.70;;;2.63;;
12848;SDS011;6493;50.928;7.172;2023-01-25T12:31:59;2.37;;;1.90;;
12848;SDS011;6493;50.928;7.172;2023-01-25T12:37:08;3.57;;;2.53;;
12848;SDS011;6493;50.928;7.172;2023-01-25T12:42:19;2.50;;;2.30;;
12848;SDS011;6493;50.928;7.172;2023-01-25T12:47:27;5.13;;;3.70;;
12848;SDS011;6493;50.928;7.172;2023-01-25T12:52:38;4.30;;;3.40;;
12848;SDS011;6493;50.928;7.172;2023-01-25T12:57:52;3.80;;;2.97;;
12848;SDS011;6493;50.928;7.172;2023-01-25T13:03:05;5.83;;;3.50;;
12848;SDS011;6493;50.928;7.172;2023-01-25T13:08:23;6.07;;;4.07;;
12848;SDS011;6493;50.928;7.172;2023-01-25T13:13:37;4.47;;;3.50;;
12848;SDS011;6493;50.928;7.172;2023-01-25T13:18:42;3.47;;;2.97;;
12848;SDS011;6493;50.928;7.172;2023-01-25T13:23:48;4.53;;;2.60;;
12848;SDS011;6493;50.928;7.172;2023-01-25T13:34:59;4.80;;;3.40;;
12848;SDS011;6493;50.928;7.172;2023-01-25T13:40:03;7.40;;;4.90;;
12848;SDS011;6493;50.928;7.172;2023-01-25T13:45:13;4.17;;;2.50;;
12848;SDS011;6493;50.928;7.172;2023-01-25T13:50:20;3.00;;;2.13;;
12848;SDS011;6493;50.928;7.172;2023-01-25T13:55:28;3.20;;;2.30;;
12848;SDS011;6493;50.928;7.172;2023-01-25T14:00:33;5.27;;;2.80;;
12848;SDS011;6493;50.928;7.172;2023-01-25T14:05:37;3.43;;;2.13;;
12848;SDS011;6493;50.928;7.172;2023-01-25T14:10:41;3.03;;;2.00;;
12848;SDS011;6493;50.928;7.172;2023-01-25T14:15:55;3.80;;;3.17;;
12848;SDS011;6493;50.928;7.172;2023-01-25T14:21:09;2.87;;;2.30;;
12848;SDS011;6493;50.928;7.172;2023-01-25T14:26:18;3.40;;;2.23;;
12848;SDS011;6493;50.928;7.172;2023-01-25T14:31:27;3.03;;;2.40;;
12848;SDS011;6493;50.928;7.172;2023-01-25T14:36:34;2.23;;;1.70;;
12848;SDS011;6493;50.928;7.172;2023-01-25T14:41:38;1.83;;;1.40;;
12848;SDS011;6493;50.928;7.172;2023-01-25T14:47:21;3.07;;;1.70;;
12848;SDS011;6493;50.928;7.172;2023-01-25T14:52:32;1.80;;;1.13;;
12848;SDS011;6493;50.928;7.172;2023-01-25T14:57:36;1.47;;;1.17;;
12848;SDS011;6493;50.928;7.172;2023-01-25T15:02:45;10.70;;;5.57;;
12848;SDS011;6493;50.928;7.172;2023-01-25T15:07:50;3.70;;;3.00;;
12848;SDS011;6493;50.928;7.172;2023-01-25T15:12:57;3.33;;;2.30;;
12848;SDS011;6493;50.928;7.172;2023-01-25T15:23:49;1.80;;;1.33;;
12848;SDS011;6493;50.928;7.172;2023-01-25T15:28:54;2.17;;;1.93;;
12848;SDS011;6493;50.928;7.172;2023-01-25T15:33:59;1.83;;;1.43;;
12848;SDS011;6493;50.928;7.172;2023-01-25T15:39:08;2.10;;;1.80;;
12848;SDS011;6493;50.928;7.172;2023-01-25T15:44:14;2.30;;;1.70;;
12848;SDS011;6493;50.928;7.172;2023-01-25T15:49:22;3.03;;;1.77;;
12848;SDS011;6493;50.928;7.172;2023-01-25T15:54:29;2.30;;;1.67;;
12848;SDS011;6493;50.928;7.172;2023-01-25T15:59:33;2.17;;;1.50;;
12848;SDS011;6493;50.928;7.172;2023-01-25T16:04:36;2.70;;;2.00;;
12848;SDS011;6493;50.928;7.172;2023-01-25T16:09:41;1.50;;;1.30;;
12848;SDS011;6493;50.928;7.172;2023-01-25T16:14:45;4.17;;;1.53;;
12848;SDS011;6493;50.928;7.172;2023-01-25T16:19:48;3.20;;;1.90;;
12848;SDS011;6493;50.928;7.172;2023-01-25T16:24:54;2.67;;;1.63;;
12848;SDS011;6493;50.928;7.172;2023-01-25T16:29:57;3.07;;;2.20;;
12848;SDS011;6493;50.928;7.172;2023-01-25T16:35:01;2.13;;;1.73;;
12848;SDS011;6493;50.928;7.172;2023-01-25T16:40:08;3.07;;;1.97;;
12848;SDS011;6493;50.928;7.172;2023-01-25T16:45:23;4.67;;;2.80;;
12848;SDS011;6493;50.928;7.172;2023-01-25T16:50:27;5.47;;;3.90;;
12848;SDS011;6493;50.928;7.172;2023-01-25T16:55:32;4.60;;;3.10;;
12848;SDS011;6493;50.928;7.172;2023-01-25T17:00:35;4.30;;;2.63;;
12848;SDS011;6493;50.928;7.172;2023-01-25T17:05:39;3.13;;;2.20;;
12848;SDS011;6493;50.928;7.172;2023-01-25T17:10:44;3.30;;;2.43;;
12848;SDS011;6493;50.928;7.172;2023-01-25T17:15:48;3.27;;;2.50;;
12848;SDS011;6493;50.928;7.172;2023-01-25T17:20:55;4.47;;;3.20;;
12848;SDS011;6493;50.928;7.172;2023-01-25T17:26:03;3.63;;;2.63;;
12848;SDS011;6493;50.928;7.172;2023-01-25T17:31:12;3.23;;;2.20;;
12848;SDS011;6493;50.928;7.172;2023-01-25T17:36:16;3.40;;;2.27;;
12848;SDS011;6493;50.928;7.172;2023-01-25T17:41:22;3.00;;;1.97;;
12848;SDS011;6493;50.928;7.172;2023-01-25T17:46:26;4.27;;;2.63;;
12848;SDS011;6493;50.928;7.172;2023-01-25T17:51:33;4.27;;;2.73;;
12848;SDS011;6493;50.928;7.172;2023-01-25T17:56:39;3.90;;;2.47;;
12848;SDS011;6493;50.928;7.172;2023-01-25T18:01:42;5.63;;;3.60;;
12848;SDS011;6493;50.928;7.172;2023-01-25T18:06:46;4.73;;;2.80;;
12848;SDS011;6493;50.928;7.172;2023-01-25T18:11:51;4.47;;;3.20;;
12848;SDS011;6493;50.928;7.172;2023-01-25T18:16:55;4.77;;;2.93;;
12848;SDS011;6493;50.928;7.172;2023-01-25T18:21:58;3.90;;;2.70;;
12848;SDS011;6493;50.928;7.172;2023-01-25T18:27:04;3.80;;;2.40;;
12848;SDS011;6493;50.928;7.172;2023-01-25T18:32:09;3.30;;;2.50;;
12848;SDS011;6493;50.928;7.172;2023-01-25T18:37:13;4.53;;;2.73;;
12848;SDS011;6493;50.928;7.172;2023-01-25T18:42:23;4.53;;;3.03;;
12848;SDS011;6493;50.928;7.172;2023-01-25T18:47:28;4.43;;;3.10;;
12848;SDS011;6493;50.928;7.172;2023-01-25T18:52:32;3.57;;;2.47;;
12848;SDS011;6493;50.928;7.172;2023-01-25T18:57:38;4.53;;;3.17;;
12848;SDS011;6493;50.928;7.172;2023-01-25T19:02:43;4.77;;;2.50;;
12848;SDS011;6493;50.928;7.172;2023-01-25T19:07:48;5.03;;;3.40;;
12848;SDS011;6493;50.928;7.172;2023-01-25T19:12:53;4.63;;;3.13;;
12848;SDS011;6493;50.928;7.172;2023-01-25T19:17:56;4.57;;;3.13;;
12848;SDS011;6493;50.928;7.172;2023-01-25T19:23:00;5.87;;;4.37;;
12848;SDS011;6493;50.928;7.172;2023-01-25T19:28:05;6.50;;;4.03;;
12848;SDS011;6493;50.928;7.172;2023-01-25T19:33:09;5.33;;;3.07;;
12848;SDS011;6493;50.928;7.172;2023-01-25T19:38:13;4.37;;;2.90;;
12848;SDS011;6493;50.928;7.172;2023-01-25T19:43:19;5.33;;;3.53;;
12848;SDS011;6493;50.928;7.172;2023-01-25T19:48:22;3.93;;;2.60;;
12848;SDS011;6493;50.928;7.172;2023-01-25T19:53:26;6.20;;;4.20;;
12848;SDS011;6493;50.928;7.172;2023-01-25T19:58:31;7.50;;;5.03;;
12848;SDS011;6493;50.928;7.172;2023-01-25T20:03:34;6.50;;;4.97;;
12848;SDS011;6493;50.928;7.172;2023-01-25T20:08:39;14.63;;;8.77;;
12848;SDS011;6493;50.928;7.172;2023-01-25T20:13:45;10.47;;;5.97;;
12848;SDS011;6493;50.928;7.172;2023-01-25T20:18:50;7.60;;;4.10;;
12848;SDS011;6493;50.928;7.172;2023-01-25T20:23:54;5.27;;;3.73;;
12848;SDS011;6493;50.928;7.172;2023-01-25T20:29:02;5.43;;;3.63;;
12848;SDS011;6493;50.928;7.172;2023-01-25T20:34:08;6.30;;;3.40;;
12848;SDS011;6493;50.928;7.172;2023-01-25T20:39:14;5.97;;;3.40;;
12848;SDS011;6493;50.928;7.172;2023-01-25T20:44:22;4.57;;;2.97;;
12848;SDS011;6493;50.928;7.172;2023-01-25T20:49:26;8.47;;;3.93;;
12848;SDS011;6493;50.928;7.172;2023-01-25T20:54:30;9.60;;;6.63;;
12848;SDS011;6493;50.928;7.172;2023-01-25T20:59:36;7.20;;;3.97;;
12848;SDS011;6493;50.928;7.172;2023-01-25T21:04:40;5.67;;;3.70;;
12848;SDS011;6493;50.928;7.172;2023-01-25T21:09:44;5.23;;;3.33;;
12848;SDS011;6493;50.928;7.172;2023-01-25T21:14:49;7.93;;;4.80;;
12848;SDS011;6493;50.928;7.172;2023-01-25T21:19:53;6.53;;;4.00;;
12848;SDS011;6493;50.928;7.172;2023-01-25T21:24:58;8.37;;;4.80;;
12848;SDS011;6493;50.928;7.172;2023-01-25T21:30:04;5.40;;;3.10;;
12848;SDS011;6493;50.928;7.172;2023-01-25T21:35:10;10.17;;;5.63;;
12848;SDS011;6493;50.928;7.172;2023-01-25T21:40:13;5.37;;;3.43;;
12848;SDS011;6493;50.928;7.172;2023-01-25T21:45:19;5.57;;;3.47;;
12848;SDS011;6493;50.928;7.172;2023-01-25T21:50:40;5.97;;;3.43;;
12848;SDS011;6493;50.928;7.172;2023-01-25T21:56:01;3.80;;;2.70;;
12848;SDS011;6493;50.928;7.172;2023-01-25T22:01:06;5.10;;;3.27;;
12848;SDS011;6493;50.928;7.172;2023-01-25T22:06:10;4.23;;;2.60;;
12848;SDS011;6493;50.928;7.172;2023-01-25T22:11:14;5.00;;;3.00;;
12848;SDS011;6493;50.928;7.172;2023-01-25T22:16:19;4.30;;;2.67;;
12848;SDS011;6493;50.928;7.172;2023-01-25T22:21:24;2.57;;;1.93;;
12848;SDS011;6493;50.928;7.172;2023-01-25T22:26:32;3.03;;;2.10;;
12848;SDS011;6493;50.928;7.172;2023-01-25T22:31:45;3.77;;;2.43;;
12848;SDS011;6493;50.928;7.172;2023-01-25T22:36:49;3.33;;;2.00;;
12848;SDS011;6493;50.928;7.172;2023-01-25T22:41:53;3.33;;;2.20;;
12848;SDS011;6493;50.928;7.172;2023-01-25T22:46:58;3.10;;;2.03;;
12848;SDS011;6493;50.928;7.172;2023-01-25T22:52:02;2.60;;;1.80;;
12848;SDS011;6493;50.928;7.172;2023-01-25T22:57:06;2.93;;;1.97;;
12848;SDS011;6493;50.928;7.172;2023-01-25T23:02:11;2.53;;;1.83;;
12848;SDS011;6493;50.928;7.172;2023-01-25T23:07:14;3.33;;;2.10;;
12848;SDS011;6493;50.928;7.172;2023-01-25T23:12:19;2.40;;;1.93;;
12848;SDS011;6493;50.928;7.172;2023-01-25T23:17:26;2.73;;;2.00;;
12848;SDS011;6493;50.928;7.172;2023-01-25T23:22:47;2.70;;;1.80;;
12848;SDS011;6493;50.928;7.172;2023-01-25T23:27:53;3.23;;;2.10;;
12848;SDS011;6493;50.928;7.172;2023-01-25T23:32:57;2.47;;;1.90;;
12848;SDS011;6493;50.928;7.172;2023-01-25T23:38:01;3.87;;;1.93;;
12848;SDS011;6493;50.928;7.172;2023-01-25T23:43:05;2.97;;;1.90;;
12848;SDS011;6493;50.928;7.172;2023-01-25T23:48:10;3.10;;;2.00;;
12848;SDS011;6493;50.928;7.172;2023-01-25T23:53:13;4.20;;;2.30;;
12848;SDS011;6493;50.928;7.172;2023-01-25T23:58:17;3.67;;;2.30;;
